createdAt,value
2023-01-03T00:02:35.950Z,1.06
2023-01-03T00:05:23.593Z,0.90
2023-01-03T00:08:11.142Z,0.90
2023-01-03T00:10:58.697Z,0.98
2023-01-03T00:13:46.259Z,0.82
2023-01-03T00:16:33.889Z,0.85
2023-01-03T00:19:21.436Z,0.77
2023-01-03T00:22:08.994Z,0.71
2023-01-03T00:24:56.533Z,0.76
2023-01-03T00:27:44.058Z,0.89
2023-01-03T00:30:31.712Z,0.85
2023-01-03T00:33:19.276Z,0.70
2023-01-03T00:36:06.831Z,0.76
2023-01-03T00:38:54.362Z,0.61
2023-01-03T00:41:41.922Z,0.69
2023-01-03T00:44:29.472Z,0.73
2023-01-03T00:47:19.049Z,0.70
2023-01-03T00:50:06.595Z,0.64
2023-01-03T00:52:54.134Z,0.75
2023-01-03T00:55:41.680Z,0.71
2023-01-03T00:58:29.246Z,0.70
2023-01-03T01:01:16.971Z,0.71
2023-01-03T01:04:04.858Z,0.79
2023-01-03T01:06:52.478Z,0.77
2023-01-03T01:09:40.051Z,0.74
2023-01-03T01:12:27.587Z,0.62
2023-01-03T01:15:15.173Z,0.71
2023-01-03T01:18:02.749Z,0.82
2023-01-03T01:20:50.298Z,0.93
2023-01-03T01:23:37.857Z,0.96
2023-01-03T01:26:25.414Z,1.34
2023-01-03T01:29:12.998Z,0.84
2023-01-03T01:32:00.581Z,0.95
2023-01-03T01:34:48.133Z,1.10
2023-01-03T01:37:35.694Z,0.97
2023-01-03T01:40:23.228Z,1.14
2023-01-03T01:43:10.791Z,0.98
2023-01-03T01:45:58.363Z,1.08
2023-01-03T01:48:45.931Z,0.97
2023-01-03T01:51:33.470Z,0.75
2023-01-03T01:54:21.058Z,0.85
2023-01-03T01:57:08.611Z,0.85
2023-01-03T01:59:56.150Z,0.81
2023-01-03T02:02:43.900Z,0.71
2023-01-03T02:05:31.568Z,0.62
2023-01-03T02:08:19.105Z,0.53
2023-01-03T02:11:06.674Z,0.56
2023-01-03T02:13:54.250Z,0.64
2023-01-03T02:16:41.813Z,0.45
2023-01-03T02:19:29.401Z,0.62
2023-01-03T02:22:16.950Z,0.54
2023-01-03T02:25:04.481Z,0.56
2023-01-03T02:27:52.145Z,0.54
2023-01-03T02:30:41.692Z,0.51
2023-01-03T02:33:29.401Z,0.47
2023-01-03T02:36:16.926Z,0.49
2023-01-03T02:39:04.481Z,0.44
2023-01-03T02:41:52.046Z,0.52
2023-01-03T02:44:39.605Z,0.46
2023-01-03T02:47:27.141Z,0.52
2023-01-03T02:50:14.702Z,0.62
2023-01-03T02:53:02.279Z,0.65
2023-01-03T02:55:49.820Z,0.67
2023-01-03T02:58:37.365Z,0.55
2023-01-03T03:01:25.037Z,0.78
2023-01-03T03:04:12.696Z,0.56
2023-01-03T03:07:00.243Z,0.49
2023-01-03T03:09:47.786Z,0.70
2023-01-03T03:12:35.358Z,0.57
2023-01-03T03:15:22.934Z,0.60
2023-01-03T03:18:10.509Z,0.61
2023-01-03T03:20:58.097Z,0.54
2023-01-03T03:23:45.677Z,0.60
2023-01-03T03:26:33.239Z,0.51
2023-01-03T03:29:20.808Z,0.52
2023-01-03T03:32:08.392Z,0.42
2023-01-03T03:34:55.954Z,0.43
2023-01-03T03:37:43.513Z,0.42
2023-01-03T03:40:31.234Z,0.44
2023-01-03T03:43:18.846Z,0.38
2023-01-03T03:46:06.460Z,0.49
2023-01-03T03:48:53.991Z,0.46
2023-01-03T03:51:41.541Z,0.58
2023-01-03T03:54:29.111Z,0.53
2023-01-03T03:57:16.630Z,0.37
2023-01-03T04:00:04.163Z,0.36
2023-01-03T04:02:51.764Z,0.34
2023-01-03T04:05:39.349Z,0.45
2023-01-03T04:08:26.910Z,0.39
2023-01-03T04:11:14.450Z,0.33
2023-01-03T04:14:02.013Z,0.30
2023-01-03T04:16:49.623Z,0.35
2023-01-03T04:19:37.228Z,0.47
2023-01-03T04:22:24.780Z,0.35
2023-01-03T04:25:12.305Z,0.35
2023-01-03T04:27:59.854Z,0.29
2023-01-03T04:30:47.411Z,0.36
2023-01-03T04:33:35.131Z,0.27
2023-01-03T04:36:22.681Z,0.33
2023-01-03T04:39:10.249Z,0.32
2023-01-03T04:41:57.796Z,0.38
2023-01-03T04:44:45.382Z,0.39
2023-01-03T04:47:32.925Z,0.39
2023-01-03T04:50:20.492Z,0.23
2023-01-03T04:53:08.024Z,0.38
2023-01-03T04:55:55.586Z,0.49
2023-01-03T04:58:43.161Z,0.76
2023-01-03T05:01:30.793Z,1.34
2023-01-03T05:04:18.528Z,0.77
2023-01-03T05:07:06.114Z,0.68
2023-01-03T05:09:53.661Z,0.58
2023-01-03T05:12:41.198Z,0.54
2023-01-03T05:15:28.768Z,0.81
2023-01-03T05:18:16.295Z,0.71
2023-01-03T05:21:03.845Z,0.66
2023-01-03T05:23:51.391Z,0.61
2023-01-03T05:26:38.950Z,0.64
2023-01-03T05:29:26.512Z,0.55
2023-01-03T05:32:14.135Z,0.50
2023-01-03T05:35:01.770Z,0.51
2023-01-03T05:37:49.326Z,0.59
2023-01-03T05:40:41.275Z,0.57
2023-01-03T05:43:29.219Z,0.58
2023-01-03T05:46:16.840Z,0.75
2023-01-03T05:49:04.443Z,0.74
2023-01-03T05:51:52.013Z,1.02
2023-01-03T05:54:39.568Z,1.03
2023-01-03T05:57:31.842Z,1.17
2023-01-03T06:00:22.696Z,1.22
2023-01-03T06:03:10.405Z,0.96
2023-01-03T06:05:58.056Z,0.97
2023-01-03T06:08:45.619Z,0.80
2023-01-03T06:11:33.160Z,0.80
2023-01-03T06:14:20.819Z,0.89
2023-01-03T06:17:08.407Z,0.77
2023-01-03T06:19:56.029Z,0.91
2023-01-03T06:22:43.616Z,1.40
2023-01-03T06:25:31.192Z,1.47
2023-01-03T06:28:18.756Z,1.91
2023-01-03T06:31:06.363Z,1.80
2023-01-03T06:33:53.953Z,2.29
2023-01-03T06:36:41.507Z,2.40
2023-01-03T06:39:29.080Z,2.54
2023-01-03T06:42:16.635Z,2.50
2023-01-03T06:45:04.213Z,2.83
2023-01-03T06:47:51.759Z,4.06
2023-01-03T06:50:39.339Z,6.53
2023-01-03T06:53:26.905Z,4.47
2023-01-03T06:56:14.486Z,10.19
2023-01-03T06:59:02.022Z,7.62
2023-01-03T07:01:49.738Z,9.11
2023-01-03T07:04:37.431Z,5.91
2023-01-03T07:07:25.057Z,5.91
2023-01-03T07:10:12.641Z,3.86
2023-01-03T07:13:00.243Z,3.75
2023-01-03T07:15:47.893Z,2.59
2023-01-03T07:18:35.512Z,1.22
2023-01-03T07:21:23.104Z,1.13
2023-01-03T07:24:10.861Z,1.60
2023-01-03T07:26:58.534Z,2.02
2023-01-03T07:29:46.101Z,14.99
2023-01-03T07:32:33.709Z,19.76
2023-01-03T07:35:21.285Z,4.78
2023-01-03T07:38:08.878Z,14.13
2023-01-03T07:40:56.445Z,10.80
2023-01-03T07:43:44.008Z,5.44
2023-01-03T07:46:31.630Z,8.15
2023-01-03T07:49:19.284Z,9.72
2023-01-03T07:52:06.867Z,2.80
2023-01-03T07:54:54.430Z,3.15
2023-01-03T07:57:41.989Z,12.02
2023-01-03T08:00:29.573Z,3.17
2023-01-03T08:03:17.219Z,1.89
2023-01-03T08:06:04.825Z,1.35
2023-01-03T08:08:52.411Z,1.38
2023-01-03T08:11:39.978Z,3.70
2023-01-03T08:14:27.736Z,7.27
2023-01-03T08:17:15.429Z,2.32
2023-01-03T08:20:03.006Z,2.29
2023-01-03T08:22:50.568Z,4.79
2023-01-03T08:25:38.168Z,19.34
2023-01-03T08:28:25.797Z,42.97
2023-01-03T08:31:13.472Z,19.12
2023-01-03T08:34:01.105Z,5.71
2023-01-03T08:36:48.662Z,5.37
2023-01-03T08:39:36.250Z,6.61
2023-01-03T08:42:23.822Z,5.45
2023-01-03T08:45:11.388Z,4.14
2023-01-03T08:47:58.921Z,1.32
2023-01-03T08:50:46.482Z,1.23
2023-01-03T08:53:34.019Z,1.25
2023-01-03T08:56:21.587Z,1.26
2023-01-03T08:59:09.156Z,1.33
2023-01-03T09:01:56.955Z,3.45
2023-01-03T09:04:44.636Z,16.89
2023-01-03T09:07:32.331Z,20.39
2023-01-03T09:10:19.913Z,1.66
2023-01-03T09:13:07.486Z,1.20
2023-01-03T09:15:55.104Z,1.14
2023-01-03T09:18:42.718Z,1.06
2023-01-03T09:21:30.286Z,0.71
2023-01-03T09:24:17.873Z,0.98
2023-01-03T09:27:05.426Z,0.81
2023-01-03T09:29:53.022Z,0.90
2023-01-03T09:32:40.607Z,0.69
2023-01-03T09:35:28.174Z,0.60
2023-01-03T09:38:15.707Z,0.57
2023-01-03T09:41:03.257Z,0.56
2023-01-03T09:43:50.819Z,0.43
2023-01-03T09:46:38.417Z,0.68
2023-01-03T09:49:26.054Z,0.63
2023-01-03T09:52:13.599Z,0.62
2023-01-03T09:55:01.165Z,0.53
2023-01-03T09:57:48.737Z,0.47
2023-01-03T10:00:36.348Z,0.51
2023-01-03T10:03:23.969Z,0.67
2023-01-03T10:06:11.584Z,0.53
2023-01-03T10:08:59.132Z,0.47
2023-01-03T10:11:46.682Z,0.56
2023-01-03T10:14:34.235Z,0.56
2023-01-03T10:17:22.839Z,0.47
2023-01-03T10:20:10.373Z,0.54
2023-01-03T10:22:57.956Z,0.60
2023-01-03T10:25:45.509Z,0.61
2023-01-03T10:28:33.067Z,0.76
2023-01-03T10:31:20.644Z,0.76
2023-01-03T10:34:08.214Z,0.64
2023-01-03T10:36:55.751Z,0.74
2023-01-03T10:39:43.309Z,0.71
2023-01-03T10:42:30.842Z,0.68
2023-01-03T10:45:18.634Z,0.84
2023-01-03T10:48:06.248Z,0.80
2023-01-03T10:50:53.812Z,0.90
2023-01-03T10:53:41.366Z,1.01
2023-01-03T10:56:28.918Z,1.14
2023-01-03T10:59:16.454Z,1.43
2023-01-03T11:02:04.333Z,3.76
2023-01-03T11:04:52.097Z,8.35
2023-01-03T11:07:39.682Z,2.41
2023-01-03T11:10:27.261Z,2.48
2023-01-03T11:13:14.835Z,3.74
2023-01-03T11:16:02.404Z,5.81
2023-01-03T11:18:50.040Z,3.80
2023-01-03T11:21:37.606Z,2.83
2023-01-03T11:24:25.174Z,3.96
2023-01-03T11:27:12.739Z,4.21
2023-01-03T11:30:00.307Z,4.23
2023-01-03T11:32:47.871Z,4.64
2023-01-03T11:35:35.561Z,5.84
2023-01-03T11:38:23.117Z,9.76
2023-01-03T11:41:10.768Z,9.88
2023-01-03T11:43:58.342Z,9.87
2023-01-03T11:46:46.026Z,20.21
2023-01-03T11:49:33.637Z,17.91
2023-01-03T11:52:21.226Z,36.31
2023-01-03T11:55:08.793Z,41.53
2023-01-03T11:57:56.389Z,12.63
2023-01-03T12:00:43.939Z,4.38
2023-01-03T12:03:31.731Z,0.83
2023-01-03T12:06:22.494Z,0.65
2023-01-03T12:09:14.278Z,0.57
2023-01-03T12:12:01.833Z,0.48
2023-01-03T12:14:49.391Z,0.64
2023-01-03T12:17:36.952Z,0.54
2023-01-03T12:20:24.513Z,0.57
2023-01-03T12:23:12.093Z,0.48
2023-01-03T12:25:59.648Z,0.64
2023-01-03T12:28:47.196Z,0.88
2023-01-03T12:31:34.827Z,0.99
2023-01-03T12:34:22.422Z,0.71
2023-01-03T12:37:09.999Z,0.87
2023-01-03T12:39:57.661Z,0.75
2023-01-03T12:42:47.282Z,0.65
2023-01-03T12:45:35.014Z,0.72
2023-01-03T12:48:22.561Z,0.65
2023-01-03T12:51:10.105Z,0.65
2023-01-03T12:53:57.679Z,0.89
2023-01-03T12:56:45.211Z,0.94
2023-01-03T12:59:32.819Z,0.92
2023-01-03T13:02:20.566Z,0.83
2023-01-03T13:05:08.216Z,0.86
2023-01-03T13:07:55.783Z,0.97
2023-01-03T13:10:43.374Z,0.95
2023-01-03T13:13:30.931Z,0.86
2023-01-03T13:16:18.537Z,0.70
2023-01-03T13:19:06.152Z,0.91
2023-01-03T13:21:53.702Z,0.85
2023-01-03T13:24:41.262Z,0.80
2023-01-03T13:27:28.830Z,0.86
2023-01-03T13:30:16.400Z,0.91
2023-01-03T13:33:03.974Z,0.79
2023-01-03T13:35:51.528Z,0.90
2023-01-03T13:38:39.100Z,0.95
2023-01-03T13:41:26.657Z,1.84
2023-01-03T13:44:14.234Z,1.11
2023-01-03T13:47:01.852Z,0.96
2023-01-03T13:49:53.869Z,0.88
2023-01-03T13:52:41.805Z,0.78
2023-01-03T13:55:29.371Z,1.05
2023-01-03T13:58:16.919Z,0.77
2023-01-03T14:01:06.061Z,0.80
2023-01-03T14:03:55.430Z,0.88
2023-01-03T14:06:43.088Z,0.87
2023-01-03T14:09:30.637Z,0.83
2023-01-03T14:12:18.178Z,1.19
2023-01-03T14:15:11.261Z,1.37
2023-01-03T14:18:03.184Z,1.30
2023-01-03T14:20:50.752Z,1.07
2023-01-03T14:24:07.909Z,1.10
2023-01-03T14:26:45.810Z,1.40
2023-01-03T14:29:33.358Z,1.01
2023-01-03T14:32:22.195Z,0.98
2023-01-03T14:35:09.922Z,1.05
2023-01-03T14:38:01.888Z,1.23
2023-01-03T14:40:52.382Z,1.25
2023-01-03T14:43:39.916Z,0.83
2023-01-03T14:46:27.679Z,0.80
2023-01-03T14:49:15.357Z,0.63
2023-01-03T14:52:02.920Z,0.77
2023-01-03T14:54:50.482Z,0.83
2023-01-03T14:57:38.095Z,0.65
2023-01-03T15:00:32.640Z,0.60
2023-01-03T15:03:21.163Z,0.35
2023-01-03T15:06:08.893Z,0.44
2023-01-03T15:08:56.455Z,0.49
2023-01-03T15:11:44.018Z,0.41
2023-01-03T15:14:31.587Z,0.38
2023-01-03T15:17:21.158Z,0.29
2023-01-03T15:20:08.709Z,0.33
2023-01-03T15:22:56.269Z,0.36
2023-01-03T15:25:43.936Z,0.30
2023-01-03T15:28:31.486Z,0.37
2023-01-03T15:31:19.089Z,0.50
2023-01-03T15:34:06.683Z,0.46
2023-01-03T15:36:54.259Z,0.51
2023-01-03T15:39:41.836Z,0.49
2023-01-03T15:42:47.789Z,0.37
2023-01-03T15:45:36.844Z,0.43
2023-01-03T15:48:24.424Z,0.38
2023-01-03T15:51:11.996Z,0.45
2023-01-03T15:53:59.577Z,0.37
2023-01-03T15:56:47.123Z,0.36
2023-01-03T15:59:39.630Z,0.45
2023-01-03T16:02:30.675Z,0.64
2023-01-03T16:05:22.544Z,0.41
2023-01-03T16:08:10.789Z,0.31
2023-01-03T16:10:58.372Z,0.24
2023-01-03T16:13:45.926Z,0.21
2023-01-03T16:16:33.619Z,0.36
2023-01-03T16:19:21.237Z,0.41
2023-01-03T16:22:33.850Z,0.38
2023-01-03T16:25:16.255Z,0.40
2023-01-03T16:28:10.195Z,0.34
2023-01-03T16:31:01.735Z,0.26
2023-01-03T16:33:49.286Z,0.29
2023-01-03T16:36:36.855Z,0.28
2023-01-03T16:39:24.403Z,0.32
2023-01-03T16:42:12.059Z,0.38
2023-01-03T16:44:59.639Z,0.40
2023-01-03T16:47:47.204Z,0.38
2023-01-03T16:50:36.886Z,0.34
2023-01-03T16:53:24.483Z,0.26
2023-01-03T16:56:12.049Z,0.34
2023-01-03T16:58:59.612Z,0.38
2023-01-03T17:01:47.230Z,0.70
2023-01-03T17:04:36.874Z,0.30
2023-01-03T17:07:24.452Z,0.37
2023-01-03T17:10:12.013Z,0.56
2023-01-03T17:12:59.593Z,0.42
2023-01-03T17:15:47.164Z,0.41
2023-01-03T17:18:34.745Z,0.42
2023-01-03T17:21:22.311Z,0.43
2023-01-03T17:24:09.886Z,0.39
2023-01-03T17:26:57.544Z,0.47
2023-01-03T17:29:45.114Z,0.52
2023-01-03T17:32:32.714Z,0.53
2023-01-03T17:35:20.295Z,0.93
2023-01-03T17:38:25.868Z,0.42
2023-01-03T17:41:13.858Z,0.44
2023-01-03T17:44:01.431Z,0.50
2023-01-03T17:46:49.115Z,0.41
2023-01-03T17:49:36.737Z,0.41
2023-01-03T17:52:24.290Z,0.41
2023-01-03T17:55:11.852Z,0.56
2023-01-03T17:57:59.423Z,0.54
2023-01-03T18:00:47.002Z,0.54
2023-01-03T18:03:34.609Z,0.52
2023-01-03T18:06:22.250Z,0.47
2023-01-03T18:09:09.820Z,0.47
2023-01-03T18:11:57.402Z,0.43
2023-01-03T18:14:44.952Z,0.40
2023-01-03T18:17:32.504Z,0.51
2023-01-03T18:20:20.044Z,0.48
2023-01-03T18:23:07.603Z,0.46
2023-01-03T18:25:55.166Z,0.50
2023-01-03T18:28:42.729Z,0.54
2023-01-03T18:31:30.310Z,0.52
2023-01-03T18:34:18.147Z,0.51
2023-01-03T18:37:05.729Z,0.46
2023-01-03T18:39:53.285Z,0.48
2023-01-03T18:42:42.933Z,0.46
2023-01-03T18:45:30.514Z,0.62
2023-01-03T18:48:18.071Z,0.43
2023-01-03T18:51:05.629Z,0.45
2023-01-03T18:53:53.155Z,0.48
2023-01-03T18:56:40.718Z,4.22
2023-01-03T18:59:28.268Z,0.70
2023-01-03T19:02:15.923Z,1.18
2023-01-03T19:05:03.658Z,12.09
2023-01-03T19:07:51.261Z,2.62
2023-01-03T19:10:38.816Z,1.01
2023-01-03T19:13:26.369Z,0.95
2023-01-03T19:16:13.947Z,1.13
2023-01-03T19:19:01.592Z,1.13
2023-01-03T19:21:49.150Z,0.80
2023-01-03T19:24:39.300Z,0.94
2023-01-03T19:27:27.197Z,6.16
2023-01-03T19:30:14.757Z,15.86
2023-01-03T19:33:02.344Z,13.22
2023-01-03T19:35:49.909Z,4.23
2023-01-03T19:38:37.487Z,1.08
2023-01-03T19:41:27.060Z,0.96
2023-01-03T19:44:14.593Z,0.89
2023-01-03T19:47:02.190Z,0.63
2023-01-03T19:49:49.804Z,0.70
2023-01-03T19:52:37.334Z,0.82
2023-01-03T19:55:24.893Z,0.77
2023-01-03T19:58:12.566Z,0.71
2023-01-03T20:01:00.122Z,0.84
2023-01-03T20:03:47.844Z,0.95
2023-01-03T20:06:35.613Z,0.90
2023-01-03T20:09:23.192Z,0.86
2023-01-03T20:12:10.732Z,0.99
2023-01-03T20:15:04.656Z,1.92
2023-01-03T20:17:54.683Z,1.40
2023-01-03T20:20:42.307Z,1.21
2023-01-03T20:23:29.847Z,0.85
2023-01-03T20:26:17.419Z,1.03
2023-01-03T20:29:04.985Z,1.65
2023-01-03T20:31:52.604Z,1.18
2023-01-03T20:34:40.195Z,1.21
2023-01-03T20:37:27.773Z,1.67
2023-01-03T20:40:15.343Z,1.50
2023-01-03T20:43:03.028Z,1.21
2023-01-03T20:45:50.574Z,1.40
2023-01-03T20:48:38.157Z,1.66
2023-01-03T20:51:25.729Z,1.60
2023-01-03T20:54:13.307Z,1.15
2023-01-03T20:57:00.860Z,1.04
2023-01-03T20:59:48.414Z,1.13
2023-01-03T21:02:36.212Z,1.19
2023-01-03T21:05:23.984Z,0.95
2023-01-03T21:08:11.599Z,1.09
2023-01-03T21:10:59.140Z,1.17
2023-01-03T21:13:46.713Z,1.34
2023-01-03T21:16:34.333Z,1.24
2023-01-03T21:19:21.915Z,1.49
2023-01-03T21:22:09.475Z,1.34
2023-01-03T21:24:57.867Z,1.18
2023-01-03T21:27:45.571Z,1.05
2023-01-03T21:30:33.127Z,1.47
2023-01-03T21:33:20.691Z,1.18
2023-01-03T21:36:08.262Z,0.95
2023-01-03T21:38:55.792Z,1.01
2023-01-03T21:41:43.365Z,0.88
2023-01-03T21:44:30.933Z,0.75
2023-01-03T21:47:18.482Z,0.76
2023-01-03T21:50:06.033Z,0.83
2023-01-03T21:52:53.592Z,1.00
2023-01-03T21:55:41.125Z,0.85
2023-01-03T21:58:28.695Z,0.73
2023-01-03T22:01:16.390Z,0.84
2023-01-03T22:04:04.117Z,0.73
2023-01-03T22:06:51.749Z,0.92
2023-01-03T22:09:39.319Z,1.24
2023-01-03T22:12:26.876Z,1.01
2023-01-03T22:15:14.423Z,1.23
2023-01-03T22:18:01.983Z,1.85
2023-01-03T22:20:49.557Z,2.12
2023-01-03T22:23:37.237Z,1.76
2023-01-03T22:26:29.228Z,1.54
2023-01-03T22:29:19.945Z,1.67
2023-01-03T22:32:07.571Z,1.73
2023-01-03T22:34:55.288Z,2.12
2023-01-03T22:37:42.839Z,2.44
2023-01-03T22:40:30.405Z,3.22
2023-01-03T22:43:17.994Z,3.39
2023-01-03T22:46:05.621Z,3.61
2023-01-03T22:48:53.274Z,4.00
2023-01-03T22:51:40.825Z,4.71
2023-01-03T22:54:28.389Z,4.43
2023-01-03T22:57:15.965Z,3.76
2023-01-03T23:00:03.557Z,4.59
2023-01-03T23:02:51.336Z,5.61
2023-01-03T23:05:38.987Z,5.07
2023-01-03T23:08:26.541Z,4.63
2023-01-03T23:11:14.147Z,5.75
2023-01-03T23:14:01.738Z,5.60
2023-01-03T23:16:49.312Z,6.30
2023-01-03T23:19:36.929Z,6.73
2023-01-03T23:22:24.495Z,5.79
2023-01-03T23:25:12.086Z,4.32
2023-01-03T23:28:01.674Z,4.22
2023-01-03T23:30:49.300Z,4.06
2023-01-03T23:33:36.898Z,4.31
2023-01-03T23:36:25.607Z,4.04
2023-01-03T23:39:13.196Z,3.57
2023-01-03T23:42:00.792Z,3.91
2023-01-03T23:44:48.378Z,3.73
2023-01-03T23:47:35.970Z,4.47
2023-01-03T23:50:23.550Z,4.46
2023-01-03T23:53:11.111Z,5.66
2023-01-03T23:55:58.680Z,7.77
2023-01-03T23:58:46.237Z,8.32
